createdAt,value
2018-07-17T00:00:42.015Z,2.40
2018-07-17T00:03:14.176Z,2.55
2018-07-17T00:05:43.031Z,2.30
2018-07-17T00:08:18.678Z,2.43
2018-07-17T00:10:47.456Z,2.70
2018-07-17T00:13:19.481Z,2.83
2018-07-17T00:15:48.257Z,2.40
2018-07-17T00:18:20.483Z,2.60
2018-07-17T00:20:49.636Z,2.30
2018-07-17T00:23:22.203Z,2.40
2018-07-17T00:25:51.052Z,2.55
2018-07-17T00:28:23.032Z,2.27
2018-07-17T00:30:51.756Z,2.40
2018-07-17T00:33:23.886Z,2.50
2018-07-17T00:35:52.660Z,2.60
2018-07-17T00:38:25.694Z,2.70
2018-07-17T00:40:54.692Z,2.52
2018-07-17T00:43:27.488Z,2.70
2018-07-17T00:45:56.243Z,2.53
2018-07-17T00:48:28.461Z,2.52
2018-07-17T00:50:57.246Z,2.47
2018-07-17T00:53:29.271Z,2.67
2018-07-17T00:55:58.047Z,2.90
2018-07-17T00:58:30.162Z,2.90
2018-07-17T01:00:58.051Z,2.80
2018-07-17T01:03:36.414Z,2.73
2018-07-17T01:06:10.223Z,2.90
2018-07-17T01:08:50.881Z,3.02
2018-07-17T01:11:25.037Z,3.00
2018-07-17T01:14:01.769Z,3.03
2018-07-17T01:16:30.495Z,2.70
2018-07-17T01:19:03.489Z,2.77
2018-07-17T01:21:32.382Z,3.22
2018-07-17T01:24:04.278Z,3.10
2018-07-17T01:26:33.162Z,2.80
2018-07-17T01:29:05.312Z,3.00
2018-07-17T01:31:34.102Z,2.77
2018-07-17T01:34:06.163Z,2.90
2018-07-17T01:36:34.996Z,2.98
2018-07-17T01:39:07.031Z,3.00
2018-07-17T01:41:35.846Z,3.05
2018-07-17T01:44:07.988Z,3.10
2018-07-17T01:46:36.776Z,3.27
2018-07-17T01:49:09.696Z,3.08
2018-07-17T01:51:38.511Z,3.02
2018-07-17T01:54:11.599Z,3.22
2018-07-17T01:56:40.391Z,2.97
2018-07-17T01:59:12.407Z,3.15
2018-07-17T02:01:41.146Z,3.37
2018-07-17T02:04:20.452Z,3.50
2018-07-17T02:06:49.306Z,3.30
2018-07-17T02:09:37.806Z,3.50
2018-07-17T02:12:14.401Z,3.50
2018-07-17T02:14:47.611Z,3.60
2018-07-17T02:17:16.496Z,3.10
2018-07-17T02:19:49.444Z,3.40
2018-07-17T02:22:18.256Z,3.55
2018-07-17T02:24:50.380Z,3.33
2018-07-17T02:27:19.196Z,3.10
2018-07-17T02:29:51.216Z,3.57
2018-07-17T02:32:20.140Z,3.67
2018-07-17T02:34:52.056Z,3.70
2018-07-17T02:37:20.861Z,3.50
2018-07-17T02:39:53.816Z,3.15
2018-07-17T02:42:22.760Z,3.30
2018-07-17T02:45:01.981Z,3.52
2018-07-17T02:47:34.346Z,3.45
2018-07-17T02:50:06.562Z,3.20
2018-07-17T02:52:35.300Z,3.50
2018-07-17T02:55:07.407Z,3.37
2018-07-17T02:57:36.246Z,3.60
2018-07-17T03:00:08.306Z,3.10
2018-07-17T03:02:37.103Z,3.20
2018-07-17T03:05:09.166Z,3.77
2018-07-17T03:07:37.868Z,3.00
2018-07-17T03:10:10.098Z,3.37
2018-07-17T03:12:43.018Z,3.55
2018-07-17T03:15:15.593Z,3.70
2018-07-17T03:17:44.417Z,3.20
2018-07-17T03:20:16.455Z,3.50
2018-07-17T03:22:45.436Z,3.30
2018-07-17T03:25:17.393Z,3.75
2018-07-17T03:27:46.381Z,3.60
2018-07-17T03:30:19.149Z,3.62
2018-07-17T03:32:47.982Z,3.50
2018-07-17T03:35:20.936Z,3.47
2018-07-17T03:37:49.823Z,3.80
2018-07-17T03:40:22.648Z,3.93
2018-07-17T03:42:51.406Z,4.10
2018-07-17T03:45:23.601Z,3.62
2018-07-17T03:47:52.513Z,3.80
2018-07-17T03:50:24.444Z,3.70
2018-07-17T03:52:53.356Z,3.90
2018-07-17T03:55:25.308Z,3.85
2018-07-17T03:57:54.116Z,3.60
2018-07-17T04:00:26.247Z,3.65
2018-07-17T04:02:55.191Z,3.77
2018-07-17T04:05:27.149Z,4.00
2018-07-17T04:07:55.606Z,3.87
2018-07-17T04:10:28.971Z,3.55
2018-07-17T04:13:00.781Z,3.67
2018-07-17T04:15:32.441Z,3.47
2018-07-17T04:18:01.286Z,3.90
2018-07-17T04:20:33.283Z,3.80
2018-07-17T04:23:06.746Z,3.70
2018-07-17T04:25:39.658Z,3.50
2018-07-17T04:28:08.434Z,4.10
2018-07-17T04:30:40.557Z,4.15
2018-07-17T04:33:09.433Z,4.05
2018-07-17T04:35:41.456Z,4.00
2018-07-17T04:38:10.321Z,3.92
2018-07-17T04:40:42.287Z,3.90
2018-07-17T04:43:11.021Z,3.90
2018-07-17T04:45:47.211Z,3.95
2018-07-17T04:48:15.976Z,3.80
2018-07-17T04:50:48.561Z,3.95
2018-07-17T04:53:17.296Z,3.90
2018-07-17T04:55:49.432Z,4.05
2018-07-17T04:58:18.202Z,3.95
2018-07-17T05:00:50.296Z,3.95
2018-07-17T05:03:19.203Z,3.75
2018-07-17T05:05:51.174Z,3.70
2018-07-17T05:08:20.381Z,3.70
2018-07-17T05:10:52.147Z,3.83
2018-07-17T05:13:24.056Z,3.42
2018-07-17T05:15:56.580Z,3.77
2018-07-17T05:18:25.425Z,3.85
2018-07-17T05:20:57.510Z,3.60
2018-07-17T05:23:26.727Z,3.65
2018-07-17T05:25:58.381Z,3.72
2018-07-17T05:28:27.254Z,3.50
2018-07-17T05:30:59.240Z,3.65
2018-07-17T05:33:28.061Z,3.55
2018-07-17T05:36:00.245Z,3.60
2018-07-17T05:38:29.219Z,3.57
2018-07-17T05:41:01.905Z,3.95
2018-07-17T05:43:30.679Z,3.55
2018-07-17T05:46:04.199Z,3.37
2018-07-17T05:48:33.044Z,3.47
2018-07-17T05:51:06.410Z,3.33
2018-07-17T05:53:35.414Z,3.45
2018-07-17T05:56:07.375Z,3.22
2018-07-17T05:58:36.334Z,3.37
2018-07-17T06:01:08.244Z,3.50
2018-07-17T06:03:37.280Z,3.30
2018-07-17T06:06:11.914Z,3.60
2018-07-17T06:08:40.791Z,3.15
2018-07-17T06:11:12.765Z,3.50
2018-07-17T06:13:47.105Z,3.40
2018-07-17T06:16:21.350Z,3.05
2018-07-17T06:18:50.932Z,3.25
2018-07-17T06:21:23.540Z,3.10
2018-07-17T06:23:52.541Z,3.17
2018-07-17T06:26:24.426Z,3.10
2018-07-17T06:28:56.323Z,3.22
2018-07-17T06:31:29.826Z,3.30
2018-07-17T06:34:47.145Z,3.50
2018-07-17T06:37:20.800Z,3.22
2018-07-17T06:39:51.997Z,3.05
2018-07-17T06:42:26.838Z,3.20
2018-07-17T06:44:55.960Z,3.00
2018-07-17T06:47:28.675Z,2.97
2018-07-17T06:49:58.403Z,3.08
2018-07-17T06:52:30.556Z,2.65
2018-07-17T06:54:59.581Z,2.72
2018-07-17T06:57:33.972Z,2.85
2018-07-17T07:00:03.098Z,2.83
2018-07-17T07:02:35.819Z,3.13
2018-07-17T07:05:05.076Z,2.58
2018-07-17T07:07:38.876Z,2.50
2018-07-17T07:10:12.341Z,2.70
2018-07-17T07:15:49.522Z,2.50
2018-07-17T07:18:23.715Z,2.50
2018-07-17T07:20:52.931Z,2.33
2018-07-17T07:23:25.173Z,2.20
2018-07-17T07:26:00.986Z,2.60
2018-07-17T07:28:34.601Z,2.12
2018-07-17T07:31:03.657Z,2.10
2018-07-17T07:33:35.376Z,1.95
2018-07-17T07:36:04.241Z,2.10
2018-07-17T07:38:36.409Z,2.30
2018-07-17T07:41:05.369Z,2.10
2018-07-17T07:43:37.118Z,2.15
2018-07-17T07:46:06.275Z,2.10
2018-07-17T07:48:43.170Z,1.90
2018-07-17T07:51:20.251Z,1.82
2018-07-17T07:53:49.155Z,2.00
2018-07-17T07:56:21.131Z,1.92
2018-07-17T07:58:50.089Z,2.00
2018-07-17T08:01:23.850Z,2.00
2018-07-17T08:03:52.768Z,2.10
2018-07-17T08:06:25.646Z,1.90
2018-07-17T08:08:54.926Z,1.70
2018-07-17T08:11:27.456Z,2.02
2018-07-17T08:13:56.396Z,1.80
2018-07-17T08:16:33.913Z,1.70
2018-07-17T08:19:02.819Z,1.70
2018-07-17T08:21:34.966Z,1.77
2018-07-17T08:24:04.436Z,1.80
2018-07-17T08:26:36.431Z,1.62
2018-07-17T08:29:05.576Z,1.80
2018-07-17T08:31:37.306Z,1.60
2018-07-17T08:34:06.124Z,1.70
2018-07-17T08:36:39.016Z,1.70
2018-07-17T08:39:09.165Z,1.70
2018-07-17T08:41:41.691Z,1.90
2018-07-17T08:44:10.518Z,1.50
2018-07-17T08:46:42.632Z,1.50
2018-07-17T08:49:11.620Z,1.77
2018-07-17T08:51:43.533Z,1.30
2018-07-17T08:54:12.486Z,1.60
2018-07-17T08:56:44.405Z,1.50
2018-07-17T08:59:13.273Z,1.45
2018-07-17T09:01:45.246Z,1.77
2018-07-17T09:04:14.107Z,1.40
2018-07-17T09:06:47.106Z,1.55
2018-07-17T09:09:16.012Z,1.50
2018-07-17T09:11:48.962Z,1.50
2018-07-17T09:14:18.198Z,1.40
2018-07-17T09:16:54.222Z,1.67
2018-07-17T09:19:23.052Z,1.50
2018-07-17T09:21:56.087Z,1.50
2018-07-17T09:24:25.063Z,1.60
2018-07-17T09:26:57.841Z,1.37
2018-07-17T09:29:27.883Z,1.50
2018-07-17T09:31:59.616Z,1.50
2018-07-17T09:34:28.411Z,1.40
2018-07-17T09:37:00.473Z,1.57
2018-07-17T09:39:29.375Z,1.50
2018-07-17T09:42:01.399Z,1.45
2018-07-17T09:44:30.817Z,1.52
2018-07-17T09:47:04.131Z,1.55
2018-07-17T09:49:32.972Z,1.40
2018-07-17T09:52:05.886Z,1.50
2018-07-17T09:54:34.791Z,1.40
2018-07-17T09:57:06.776Z,1.30
2018-07-17T09:59:35.540Z,1.42
2018-07-17T10:02:14.005Z,1.50
2018-07-17T10:04:43.146Z,1.40
2018-07-17T10:07:15.770Z,1.50
2018-07-17T10:09:44.680Z,1.60
2018-07-17T10:12:21.475Z,1.50
2018-07-17T10:14:51.531Z,1.47
2018-07-17T10:17:27.406Z,1.45
2018-07-17T10:19:56.239Z,1.52
2018-07-17T10:22:28.393Z,1.35
2018-07-17T10:24:57.295Z,1.50
2018-07-17T10:27:30.197Z,1.60
2018-07-17T10:29:59.603Z,1.55
2018-07-17T10:32:32.855Z,1.53
2018-07-17T10:35:02.830Z,1.30
2018-07-17T10:37:34.507Z,1.40
2018-07-17T10:40:03.346Z,1.80
2018-07-17T10:42:35.466Z,1.60
2018-07-17T10:45:04.781Z,1.35
2018-07-17T10:47:38.295Z,1.30
2018-07-17T10:50:07.046Z,1.57
2018-07-17T10:52:43.597Z,1.50
2018-07-17T10:55:12.468Z,1.70
2018-07-17T10:57:44.492Z,1.60
2018-07-17T11:00:13.342Z,1.42
2018-07-17T11:02:47.162Z,1.60
2018-07-17T11:05:16.192Z,1.70
2018-07-17T11:07:48.907Z,1.40
2018-07-17T11:10:17.972Z,1.57
2018-07-17T11:12:49.893Z,1.60
2018-07-17T11:15:18.674Z,1.62
2018-07-17T11:17:54.262Z,1.80
2018-07-17T11:20:23.017Z,1.60
2018-07-17T11:22:56.079Z,1.70
2018-07-17T11:25:24.899Z,1.60
2018-07-17T11:27:57.827Z,1.50
2018-07-17T11:30:26.712Z,1.77
2018-07-17T11:32:58.720Z,1.80
2018-07-17T11:35:27.583Z,1.60
2018-07-17T11:37:59.682Z,1.70
2018-07-17T11:40:28.537Z,1.75
2018-07-17T11:43:00.552Z,1.65
2018-07-17T11:45:29.399Z,1.40
2018-07-17T11:48:01.382Z,1.70
2018-07-17T11:50:30.117Z,1.60
2018-07-17T11:53:03.209Z,1.72
2018-07-17T11:55:32.467Z,1.60
2018-07-17T11:58:05.886Z,2.00
2018-07-17T12:00:34.823Z,1.80
2018-07-17T12:03:06.721Z,1.77
2018-07-17T12:05:35.569Z,1.67
2018-07-17T12:08:07.641Z,1.60
2018-07-17T12:10:36.435Z,1.67
2018-07-17T12:13:08.472Z,1.70
2018-07-17T12:15:37.305Z,1.47
2018-07-17T12:18:13.065Z,1.50
2018-07-17T12:20:41.951Z,1.40
2018-07-17T12:23:13.907Z,1.45
2018-07-17T12:25:42.682Z,1.40
2018-07-17T12:28:14.715Z,1.50
2018-07-17T12:30:43.601Z,1.50
2018-07-17T12:33:16.100Z,1.60
2018-07-17T12:35:45.048Z,1.53
2018-07-17T12:38:17.461Z,1.43
2018-07-17T12:40:45.937Z,1.50
2018-07-17T12:43:19.273Z,1.50
2018-07-17T12:45:48.123Z,1.80
2018-07-17T12:48:21.090Z,1.70
2018-07-17T12:50:49.890Z,1.55
2018-07-17T12:53:22.225Z,1.80
2018-07-17T12:55:51.127Z,1.55
2018-07-17T12:58:23.785Z,1.57
2018-07-17T13:00:52.632Z,1.80
2018-07-17T13:03:24.541Z,1.60
2018-07-17T13:05:53.359Z,1.60
2018-07-17T13:08:29.366Z,2.27
2018-07-17T13:10:58.131Z,2.10
2018-07-17T13:13:30.020Z,2.10
2018-07-17T13:15:58.931Z,1.82
2018-07-17T13:18:36.229Z,1.87
2018-07-17T13:21:05.003Z,1.75
2018-07-17T13:23:38.081Z,1.75
2018-07-17T13:26:07.037Z,1.80
2018-07-17T13:28:47.985Z,1.77
2018-07-17T13:31:21.360Z,1.80
2018-07-17T13:33:53.355Z,1.70
2018-07-17T13:36:22.294Z,1.80
2018-07-17T13:38:55.145Z,1.60
2018-07-17T13:41:24.326Z,2.30
2018-07-17T13:43:56.891Z,1.70
2018-07-17T13:46:25.928Z,2.00
2018-07-17T13:48:57.869Z,1.80
2018-07-17T13:51:26.744Z,1.90
2018-07-17T13:53:59.646Z,1.80
2018-07-17T13:56:28.432Z,2.25
2018-07-17T13:59:01.348Z,2.12
2018-07-17T14:01:30.271Z,2.37
2018-07-17T14:04:03.219Z,2.33
2018-07-17T14:06:31.910Z,2.58
2018-07-17T14:09:04.951Z,2.25
2018-07-17T14:11:33.879Z,2.33
2018-07-17T14:14:11.662Z,2.10
2018-07-17T14:16:40.382Z,2.45
2018-07-17T14:19:16.662Z,2.67
2018-07-17T14:21:45.590Z,2.87
2018-07-17T14:24:17.522Z,2.50
2018-07-17T14:26:46.792Z,2.60
2018-07-17T20:51:37.806Z,2.10
2018-07-17T20:54:06.652Z,2.30
2018-07-17T20:56:38.778Z,2.22
2018-07-17T20:59:07.662Z,2.30
2018-07-17T21:01:40.517Z,2.80
2018-07-17T21:04:09.347Z,2.72
2018-07-17T21:06:42.301Z,2.60
2018-07-17T21:09:12.218Z,2.70
2018-07-17T21:11:45.013Z,2.62
2018-07-17T21:14:14.107Z,2.75
2018-07-17T21:16:45.868Z,2.55
2018-07-17T21:19:14.743Z,2.70
2018-07-17T21:21:46.825Z,2.60
2018-07-17T21:24:15.691Z,2.62
2018-07-17T21:26:48.559Z,2.83
2018-07-17T21:29:17.747Z,2.60
2018-07-17T21:31:51.228Z,2.77
2018-07-17T21:34:21.037Z,2.77
2018-07-17T21:36:52.974Z,2.87
2018-07-17T21:39:21.876Z,2.70
2018-07-17T21:41:54.141Z,2.50
2018-07-17T21:44:23.089Z,2.50
2018-07-17T21:46:54.752Z,2.87
2018-07-17T21:49:23.626Z,2.73
2018-07-17T21:51:59.276Z,2.50
2018-07-17T21:54:28.262Z,2.90
2018-07-17T21:57:00.228Z,2.72
2018-07-17T21:59:29.204Z,3.00
2018-07-17T22:02:01.092Z,2.73
2018-07-17T22:04:30.030Z,2.65
2018-07-17T22:07:01.924Z,2.57
2018-07-17T22:09:30.907Z,2.70
2018-07-17T22:12:02.843Z,2.70
2018-07-17T22:14:31.717Z,3.00
2018-07-17T22:17:04.575Z,2.98
2018-07-17T22:19:33.082Z,2.50
2018-07-17T22:22:06.367Z,2.60
2018-07-17T22:24:35.354Z,2.40
2018-07-17T22:27:07.242Z,2.60
2018-07-17T22:29:36.454Z,2.50
2018-07-17T22:32:08.977Z,2.60
2018-07-17T22:34:37.786Z,2.45
2018-07-17T22:37:10.030Z,2.70
2018-07-17T22:39:40.267Z,3.20
2018-07-17T22:42:13.476Z,2.50
2018-07-17T22:44:41.997Z,2.57
2018-07-17T22:47:15.305Z,2.62
2018-07-17T22:49:44.163Z,2.60
2018-07-17T22:52:19.919Z,2.63
2018-07-17T22:54:49.591Z,2.92
2018-07-17T22:57:22.407Z,2.90
2018-07-17T22:59:51.351Z,3.10
2018-07-17T23:02:24.354Z,3.00
2018-07-17T23:04:53.279Z,3.12
2018-07-17T23:07:25.242Z,2.72
2018-07-17T23:10:00.887Z,3.30
2018-07-17T23:12:33.308Z,3.50
2018-07-17T23:15:02.324Z,3.40
2018-07-17T23:17:34.136Z,3.70
2018-07-17T23:20:03.181Z,3.40
2018-07-17T23:22:51.381Z,3.35
2018-07-17T23:25:20.976Z,3.50
2018-07-17T23:27:53.153Z,3.50
2018-07-17T23:30:22.065Z,3.27
2018-07-17T23:32:54.964Z,3.80
2018-07-17T23:35:25.172Z,3.67
2018-07-17T23:37:58.586Z,3.57
2018-07-17T23:40:27.509Z,3.73
2018-07-17T23:43:00.352Z,3.80
2018-07-17T23:45:28.849Z,4.00
2018-07-17T23:48:01.206Z,3.92
2018-07-17T23:50:30.047Z,4.00
2018-07-17T23:53:04.871Z,3.95
2018-07-17T23:55:33.677Z,3.87
2018-07-17T23:58:06.507Z,4.08
